sensor_id;sensor_type;location;lat;lon;timestamp;pressure;altitude;pressure_sealevel;temperature;humidity
10806;BME280;5455;53.224;6.000;2022-11-06T00:01:14;101151.63;;;9.54;100.00
10806;BME280;5455;53.224;6.000;2022-11-06T00:03:42;101144.88;;;9.52;100.00
10806;BME280;5455;53.224;6.000;2022-11-06T00:06:15;101143.47;;;9.46;100.00
10806;BME280;5455;53.224;6.000;2022-11-06T00:09:03;101151.63;;;9.42;100.00
10806;BME280;5455;53.224;6.000;2022-11-06T00:11:30;101142.00;;;9.36;100.00
10806;BME280;5455;53.224;6.000;2022-11-06T00:13:59;101139.13;;;9.32;100.00
10806;BME280;5455;53.224;6.000;2022-11-06T00:16:27;101140.25;;;9.31;100.00
10806;BME280;5455;53.224;6.000;2022-11-06T00:18:54;101143.81;;;9.32;100.00
10806;BME280;5455;53.224;6.000;2022-11-06T00:21:23;101138.19;;;9.28;100.00
10806;BME280;5455;53.224;6.000;2022-11-06T00:23:51;101148.41;;;9.28;100.00
10806;BME280;5455;53.224;6.000;2022-11-06T00:26:21;101142.09;;;9.27;100.00
10806;BME280;5455;53.224;6.000;2022-11-06T00:28:49;101137.28;;;9.24;100.00
10806;BME280;5455;53.224;6.000;2022-11-06T00:31:22;101135.44;;;9.28;100.00
10806;BME280;5455;53.224;6.000;2022-11-06T00:33:49;101129.16;;;9.28;100.00
10806;BME280;5455;53.224;6.000;2022-11-06T00:36:19;101129.94;;;9.28;100.00
10806;BME280;5455;53.224;6.000;2022-11-06T00:38:46;101124.09;;;9.30;100.00
10806;BME280;5455;53.224;6.000;2022-11-06T00:41:14;101131.22;;;9.31;100.00
10806;BME280;5455;53.224;6.000;2022-11-06T00:43:50;101121.47;;;9.33;100.00
10806;BME280;5455;53.224;6.000;2022-11-06T00:46:17;101133.72;;;9.36;100.00
10806;BME280;5455;53.224;6.000;2022-11-06T00:48:45;101125.13;;;9.37;100.00
10806;BME280;5455;53.224;6.000;2022-11-06T00:51:13;101127.53;;;9.39;100.00
10806;BME280;5455;53.224;6.000;2022-11-06T00:53:41;101126.50;;;9.43;100.00
10806;BME280;5455;53.224;6.000;2022-11-06T00:56:10;101125.34;;;9.45;100.00
10806;BME280;5455;53.224;6.000;2022-11-06T00:58:38;101125.03;;;9.46;100.00
10806;BME280;5455;53.224;6.000;2022-11-06T01:01:06;101121.59;;;9.49;100.00
10806;BME280;5455;53.224;6.000;2022-11-06T01:03:33;101130.28;;;9.51;100.00
10806;BME280;5455;53.224;6.000;2022-11-06T01:06:05;101128.34;;;9.52;100.00
10806;BME280;5455;53.224;6.000;2022-11-06T01:08:32;101128.78;;;9.54;100.00
10806;BME280;5455;53.224;6.000;2022-11-06T01:11:08;101130.41;;;9.55;100.00
10806;BME280;5455;53.224;6.000;2022-11-06T01:13:36;101120.97;;;9.56;100.00
10806;BME280;5455;53.224;6.000;2022-11-06T01:16:05;101123.41;;;9.57;100.00
10806;BME280;5455;53.224;6.000;2022-11-06T01:18:33;101105.97;;;9.53;100.00
10806;BME280;5455;53.224;6.000;2022-11-06T01:21:09;101116.28;;;9.56;100.00
10806;BME280;5455;53.224;6.000;2022-11-06T01:23:36;101109.66;;;9.57;100.00
10806;BME280;5455;53.224;6.000;2022-11-06T01:26:07;101111.25;;;9.58;100.00
10806;BME280;5455;53.224;6.000;2022-11-06T01:28:34;101116.41;;;9.60;100.00
10806;BME280;5455;53.224;6.000;2022-11-06T01:31:06;101107.34;;;9.59;100.00
10806;BME280;5455;53.224;6.000;2022-11-06T01:33:33;101112.84;;;9.59;100.00
10806;BME280;5455;53.224;6.000;2022-11-06T01:36:00;101103.09;;;9.62;100.00
10806;BME280;5455;53.224;6.000;2022-11-06T01:38:27;101100.34;;;9.62;100.00
10806;BME280;5455;53.224;6.000;2022-11-06T01:40:54;101106.31;;;9.64;100.00
10806;BME280;5455;53.224;6.000;2022-11-06T01:43:25;101090.13;;;9.62;100.00
10806;BME280;5455;53.224;6.000;2022-11-06T01:45:54;101090.94;;;9.63;100.00
10806;BME280;5455;53.224;6.000;2022-11-06T01:48:25;101094.50;;;9.63;100.00
10806;BME280;5455;53.224;6.000;2022-11-06T01:50:55;101098.84;;;9.64;100.00
10806;BME280;5455;53.224;6.000;2022-11-06T01:53:24;101092.19;;;9.65;100.00
10806;BME280;5455;53.224;6.000;2022-11-06T01:55:54;101085.53;;;9.66;100.00
10806;BME280;5455;53.224;6.000;2022-11-06T01:58:23;101087.16;;;9.67;100.00
10806;BME280;5455;53.224;6.000;2022-11-06T02:00:51;101089.09;;;9.67;100.00
10806;BME280;5455;53.224;6.000;2022-11-06T02:03:18;101075.34;;;9.67;100.00
10806;BME280;5455;53.224;6.000;2022-11-06T02:05:45;101077.28;;;9.66;100.00
10806;BME280;5455;53.224;6.000;2022-11-06T02:08:14;101075.34;;;9.67;100.00
10806;BME280;5455;53.224;6.000;2022-11-06T02:10:42;101076.16;;;9.67;100.00
10806;BME280;5455;53.224;6.000;2022-11-06T02:16:08;101080.84;;;9.67;100.00
10806;BME280;5455;53.224;6.000;2022-11-06T02:18:50;101072.59;;;9.67;100.00
10806;BME280;5455;53.224;6.000;2022-11-06T02:24:02;101079.34;;;9.69;100.00
10806;BME280;5455;53.224;6.000;2022-11-06T02:32:06;101079.34;;;9.69;100.00
10806;BME280;5455;53.224;6.000;2022-11-06T02:34:37;101074.66;;;9.70;100.00
10806;BME280;5455;53.224;6.000;2022-11-06T02:37:12;101085.28;;;9.71;100.00
10806;BME280;5455;53.224;6.000;2022-11-06T02:39:42;101070.38;;;9.72;100.00
10806;BME280;5455;53.224;6.000;2022-11-06T02:42:11;101066.81;;;9.72;100.00
10806;BME280;5455;53.224;6.000;2022-11-06T02:44:41;101071.97;;;9.73;100.00
10806;BME280;5455;53.224;6.000;2022-11-06T02:47:12;101062.56;;;9.74;100.00
10806;BME280;5455;53.224;6.000;2022-11-06T02:49:46;101065.69;;;9.73;100.00
10806;BME280;5455;53.224;6.000;2022-11-06T02:52:19;101066.47;;;9.73;100.00
10806;BME280;5455;53.224;6.000;2022-11-06T02:54:55;101060.97;;;9.73;100.00
10806;BME280;5455;53.224;6.000;2022-11-06T02:57:25;101068.06;;;9.74;100.00
10806;BME280;5455;53.224;6.000;2022-11-06T03:00:00;101062.56;;;9.74;100.00
10806;BME280;5455;53.224;6.000;2022-11-06T03:02:38;101066.47;;;9.73;100.00
10806;BME280;5455;53.224;6.000;2022-11-06T03:05:22;101059.81;;;9.74;100.00
10806;BME280;5455;53.224;6.000;2022-11-06T03:07:57;101063.38;;;9.75;100.00
10806;BME280;5455;53.224;6.000;2022-11-06T03:10:30;101062.25;;;9.76;100.00
10806;BME280;5455;53.224;6.000;2022-11-06T03:13:08;101057.88;;;9.75;100.00
10806;BME280;5455;53.224;6.000;2022-11-06T03:15:45;101051.22;;;9.76;100.00
10806;BME280;5455;53.224;6.000;2022-11-06T03:18:28;101046.84;;;9.75;100.00
10806;BME280;5455;53.224;6.000;2022-11-06T03:21:02;101045.13;;;9.70;100.00
10806;BME280;5455;53.224;6.000;2022-11-06T03:23:47;101046.41;;;9.73;100.00
10806;BME280;5455;53.224;6.000;2022-11-06T03:26:34;101055.94;;;9.75;100.00
10806;BME280;5455;53.224;6.000;2022-11-06T03:29:24;101052.00;;;9.76;100.00
10806;BME280;5455;53.224;6.000;2022-11-06T03:32:02;101050.53;;;9.79;100.00
10806;BME280;5455;53.224;6.000;2022-11-06T03:34:50;101036.41;;;9.80;100.00
10806;BME280;5455;53.224;6.000;2022-11-06T03:37:28;101042.28;;;9.79;100.00
10806;BME280;5455;53.224;6.000;2022-11-06T03:40:00;101037.19;;;9.81;100.00
10806;BME280;5455;53.224;6.000;2022-11-06T03:42:29;101035.25;;;9.81;100.00
10806;BME280;5455;53.224;6.000;2022-11-06T03:45:00;101031.59;;;9.77;100.00
10806;BME280;5455;53.224;6.000;2022-11-06T03:47:30;101032.50;;;9.81;100.00
10806;BME280;5455;53.224;6.000;2022-11-06T03:50:13;101035.25;;;9.81;100.00
10806;BME280;5455;53.224;6.000;2022-11-06T03:52:47;101038.00;;;9.81;100.00
10806;BME280;5455;53.224;6.000;2022-11-06T03:55:20;101036.84;;;9.82;100.00
10806;BME280;5455;53.224;6.000;2022-11-06T03:58:01;101037.66;;;9.83;100.00
10806;BME280;5455;53.224;6.000;2022-11-06T04:00:30;101040.88;;;9.85;100.00
10806;BME280;5455;53.224;6.000;2022-11-06T04:03:04;101036.13;;;9.85;100.00
10806;BME280;5455;53.224;6.000;2022-11-06T04:05:37;101035.81;;;9.87;100.00
10806;BME280;5455;53.224;6.000;2022-11-06T04:08:07;101035.44;;;9.88;100.00
10806;BME280;5455;53.224;6.000;2022-11-06T04:10:58;101036.63;;;9.87;100.00
10806;BME280;5455;53.224;6.000;2022-11-06T04:13:46;101037.88;;;9.90;100.00
10806;BME280;5455;53.224;6.000;2022-11-06T04:16:40;101035.44;;;9.88;100.00
10806;BME280;5455;53.224;6.000;2022-11-06T04:19:16;101038.19;;;9.88;100.00
10806;BME280;5455;53.224;6.000;2022-11-06T04:30:45;101039.00;;;9.89;100.00
10806;BME280;5455;53.224;6.000;2022-11-06T04:33:33;101038.19;;;9.88;100.00
10806;BME280;5455;53.224;6.000;2022-11-06T04:41:16;101044.88;;;9.87;100.00
10806;BME280;5455;53.224;6.000;2022-11-06T04:43:50;101046.47;;;9.88;100.00
10806;BME280;5455;53.224;6.000;2022-11-06T04:46:23;101040.94;;;9.88;100.00
10806;BME280;5455;53.224;6.000;2022-11-06T04:48:52;101041.75;;;9.89;100.00
10806;BME280;5455;53.224;6.000;2022-11-06T04:51:24;101026.41;;;9.88;100.00
10806;BME280;5455;53.224;6.000;2022-11-06T04:53:53;101028.34;;;9.87;100.00
10806;BME280;5455;53.224;6.000;2022-11-06T04:56:29;101031.09;;;9.87;100.00
10806;BME280;5455;53.224;6.000;2022-11-06T04:59:01;101017.34;;;9.87;100.00
10806;BME280;5455;53.224;6.000;2022-11-06T05:01:29;101011.81;;;9.87;100.00
10806;BME280;5455;53.224;6.000;2022-11-06T05:03:56;101018.47;;;9.86;100.00
10806;BME280;5455;53.224;6.000;2022-11-06T05:06:23;101007.47;;;9.86;100.00
10806;BME280;5455;53.224;6.000;2022-11-06T05:08:55;101008.59;;;9.85;100.00
10806;BME280;5455;53.224;6.000;2022-11-06T05:11:23;100998.38;;;9.86;100.00
10806;BME280;5455;53.224;6.000;2022-11-06T05:13:50;100997.59;;;9.85;100.00
10806;BME280;5455;53.224;6.000;2022-11-06T05:16:17;101007.47;;;9.86;100.00
10806;BME280;5455;53.224;6.000;2022-11-06T05:18:44;101014.09;;;9.85;100.00
10806;BME280;5455;53.224;6.000;2022-11-06T05:21:11;101003.91;;;9.86;100.00
10806;BME280;5455;53.224;6.000;2022-11-06T05:23:57;100996.00;;;9.84;100.00
10806;BME280;5455;53.224;6.000;2022-11-06T05:26:23;100995.19;;;9.84;100.00
10806;BME280;5455;53.224;6.000;2022-11-06T05:28:51;100994.38;;;9.83;100.00
10806;BME280;5455;53.224;6.000;2022-11-06T05:31:18;100989.69;;;9.84;100.00
10806;BME280;5455;53.224;6.000;2022-11-06T05:33:44;100983.81;;;9.85;100.00
10806;BME280;5455;53.224;6.000;2022-11-06T05:36:11;100978.31;;;9.85;100.00
10806;BME280;5455;53.224;6.000;2022-11-06T05:38:38;100985.78;;;9.85;100.00
10806;BME280;5455;53.224;6.000;2022-11-06T05:41:05;100992.88;;;9.86;100.00
10806;BME280;5455;53.224;6.000;2022-11-06T05:43:32;100999.19;;;9.86;100.00
10806;BME280;5455;53.224;6.000;2022-11-06T05:45:59;101010.22;;;9.86;100.00
10806;BME280;5455;53.224;6.000;2022-11-06T05:48:27;101006.66;;;9.86;100.00
10806;BME280;5455;53.224;6.000;2022-11-06T05:51:05;101005.50;;;9.87;100.00
10806;BME280;5455;53.224;6.000;2022-11-06T05:53:34;101002.31;;;9.85;100.00
10806;BME280;5455;53.224;6.000;2022-11-06T05:56:02;100999.91;;;9.83;100.00
10806;BME280;5455;53.224;6.000;2022-11-06T05:58:29;100986.13;;;9.83;100.00
10806;BME280;5455;53.224;6.000;2022-11-06T06:00:57;100995.19;;;9.84;100.00
10806;BME280;5455;53.224;6.000;2022-11-06T06:03:24;100992.78;;;9.82;100.00
10806;BME280;5455;53.224;6.000;2022-11-06T06:05:51;100999.47;;;9.81;100.00
10806;BME280;5455;53.224;6.000;2022-11-06T06:08:18;100988.78;;;9.80;100.00
10806;BME280;5455;53.224;6.000;2022-11-06T06:10:46;100983.63;;;9.78;100.00
10806;BME280;5455;53.224;6.000;2022-11-06T06:13:13;100991.44;;;9.76;100.00
10806;BME280;5455;53.224;6.000;2022-11-06T06:15:41;100987.88;;;9.76;100.00
10806;BME280;5455;53.224;6.000;2022-11-06T06:18:08;100996.16;;;9.76;100.00
10806;BME280;5455;53.224;6.000;2022-11-06T06:20:36;100990.97;;;9.74;100.00
10806;BME280;5455;53.224;6.000;2022-11-06T06:23:03;100996.50;;;9.74;100.00
10806;BME280;5455;53.224;6.000;2022-11-06T06:25:35;100993.72;;;9.74;100.00
10806;BME280;5455;53.224;6.000;2022-11-06T06:28:01;100991.78;;;9.75;100.00
10806;BME280;5455;53.224;6.000;2022-11-06T06:30:28;100987.09;;;9.75;100.00
10806;BME280;5455;53.224;6.000;2022-11-06T06:32:55;100998.44;;;9.74;100.00
10806;BME280;5455;53.224;6.000;2022-11-06T06:35:22;100995.56;;;9.70;100.00
10806;BME280;5455;53.224;6.000;2022-11-06T06:37:53;100997.00;;;9.64;100.00
10806;BME280;5455;53.224;6.000;2022-11-06T06:40:20;100995.66;;;9.58;100.00
10806;BME280;5455;53.224;6.000;2022-11-06T06:42:48;100987.59;;;9.53;100.00
10806;BME280;5455;53.224;6.000;2022-11-06T06:45:16;101006.31;;;9.48;100.00
10806;BME280;5455;53.224;6.000;2022-11-06T06:47:43;100999.19;;;9.47;100.00
10806;BME280;5455;53.224;6.000;2022-11-06T06:50:09;101001.19;;;9.46;100.00
10806;BME280;5455;53.224;6.000;2022-11-06T06:52:36;101000.25;;;9.42;100.00
10806;BME280;5455;53.224;6.000;2022-11-06T06:55:04;101001.06;;;9.43;100.00
10806;BME280;5455;53.224;6.000;2022-11-06T06:57:31;100991.56;;;9.40;100.00
10806;BME280;5455;53.224;6.000;2022-11-06T06:59:58;100990.75;;;9.39;100.00
10806;BME280;5455;53.224;6.000;2022-11-06T07:02:25;100980.56;;;9.40;100.00
10806;BME280;5455;53.224;6.000;2022-11-06T07:04:52;100979.38;;;9.41;100.00
10806;BME280;5455;53.224;6.000;2022-11-06T07:07:19;100987.63;;;9.41;100.00
10806;BME280;5455;53.224;6.000;2022-11-06T07:09:46;100981.44;;;9.44;100.00
10806;BME280;5455;53.224;6.000;2022-11-06T07:12:13;100977.53;;;9.45;100.00
10806;BME280;5455;53.224;6.000;2022-11-06T07:14:40;100980.31;;;9.45;100.00
10806;BME280;5455;53.224;6.000;2022-11-06T07:17:07;100981.44;;;9.44;100.00
10806;BME280;5455;53.224;6.000;2022-11-06T07:19:34;100981.00;;;9.42;100.00
10806;BME280;5455;53.224;6.000;2022-11-06T07:22:01;100985.00;;;9.45;100.00
10806;BME280;5455;53.224;6.000;2022-11-06T07:24:27;100981.44;;;9.44;100.00
10806;BME280;5455;53.224;6.000;2022-11-06T07:26:54;100972.84;;;9.46;100.00
10806;BME280;5455;53.224;6.000;2022-11-06T07:29:21;100983.84;;;9.46;100.00
10806;BME280;5455;53.224;6.000;2022-11-06T07:31:48;100981.91;;;9.46;100.00
10806;BME280;5455;53.224;6.000;2022-11-06T07:34:15;100978.34;;;9.46;100.00
10806;BME280;5455;53.224;6.000;2022-11-06T07:36:42;100976.03;;;9.48;100.00
10806;BME280;5455;53.224;6.000;2022-11-06T07:39:09;100979.16;;;9.46;100.00
10806;BME280;5455;53.224;6.000;2022-11-06T07:41:36;100972.16;;;9.49;100.00
10806;BME280;5455;53.224;6.000;2022-11-06T07:44:03;100974.09;;;9.48;100.00
10806;BME280;5455;53.224;6.000;2022-11-06T07:46:30;100983.28;;;9.52;100.00
10806;BME280;5455;53.224;6.000;2022-11-06T07:48:57;100981.28;;;9.53;100.00
10806;BME280;5455;53.224;6.000;2022-11-06T07:51:24;100973.03;;;9.53;100.00
10806;BME280;5455;53.224;6.000;2022-11-06T07:53:51;100966.75;;;9.52;100.00
10806;BME280;5455;53.224;6.000;2022-11-06T07:56:17;100971.09;;;9.53;100.00
10806;BME280;5455;53.224;6.000;2022-11-06T07:58:44;100969.94;;;9.54;100.00
10806;BME280;5455;53.224;6.000;2022-11-06T08:01:16;100968.81;;;9.55;100.00
10806;BME280;5455;53.224;6.000;2022-11-06T08:03:45;100966.25;;;9.62;100.00
10806;BME280;5455;53.224;6.000;2022-11-06T08:06:12;100964.75;;;9.65;100.00
10806;BME280;5455;53.224;6.000;2022-11-06T08:08:39;100963.72;;;9.69;100.00
10806;BME280;5455;53.224;6.000;2022-11-06T08:11:08;100962.91;;;9.69;100.00
10806;BME280;5455;53.224;6.000;2022-11-06T08:13:36;100968.78;;;9.67;100.00
10806;BME280;5455;53.224;6.000;2022-11-06T08:16:12;100959.78;;;9.70;100.00
10806;BME280;5455;53.224;6.000;2022-11-06T08:18:39;100958.09;;;9.66;100.00
10806;BME280;5455;53.224;6.000;2022-11-06T08:21:07;100962.09;;;9.68;100.00
10806;BME280;5455;53.224;6.000;2022-11-06T08:23:34;100956.84;;;9.63;100.00
10806;BME280;5455;53.224;6.000;2022-11-06T08:26:03;100955.72;;;9.64;100.00
10806;BME280;5455;53.224;6.000;2022-11-06T08:28:30;100966.72;;;9.64;100.00
10806;BME280;5455;53.224;6.000;2022-11-06T08:31:02;100960.03;;;9.65;100.00
10806;BME280;5455;53.224;6.000;2022-11-06T08:33:29;100962.19;;;9.72;100.00
10806;BME280;5455;53.224;6.000;2022-11-06T08:36:03;100964.25;;;9.75;100.00
10806;BME280;5455;53.224;6.000;2022-11-06T08:38:31;100961.13;;;9.76;100.00
10806;BME280;5455;53.224;6.000;2022-11-06T08:41:02;100961.94;;;9.77;100.00
10806;BME280;5455;53.224;6.000;2022-11-06T08:43:29;100962.84;;;9.81;100.00
10806;BME280;5455;53.224;6.000;2022-11-06T08:45:58;100955.84;;;9.83;100.00
10806;BME280;5455;53.224;6.000;2022-11-06T08:48:24;100954.00;;;9.87;100.00
10806;BME280;5455;53.224;6.000;2022-11-06T08:50:51;100954.44;;;9.89;100.00
10806;BME280;5455;53.224;6.000;2022-11-06T08:53:18;100951.41;;;9.94;100.00
10806;BME280;5455;53.224;6.000;2022-11-06T08:55:45;100935.34;;;9.96;100.00
10806;BME280;5455;53.224;6.000;2022-11-06T08:58:12;100934.19;;;9.97;100.00
10806;BME280;5455;53.224;6.000;2022-11-06T09:00:40;100940.31;;;9.91;100.00
10806;BME280;5455;53.224;6.000;2022-11-06T09:03:10;100939.03;;;9.88;100.00
10806;BME280;5455;53.224;6.000;2022-11-06T09:05:39;100931.50;;;9.85;100.00
10806;BME280;5455;53.224;6.000;2022-11-06T09:08:08;100924.13;;;9.89;100.00
10806;BME280;5455;53.224;6.000;2022-11-06T09:10:39;100926.09;;;9.89;100.00
10806;BME280;5455;53.224;6.000;2022-11-06T09:13:07;100912.69;;;9.87;100.00
10806;BME280;5455;53.224;6.000;2022-11-06T09:15:36;100905.56;;;9.86;100.00
10806;BME280;5455;53.224;6.000;2022-11-06T09:18:03;100896.88;;;9.84;100.00
10806;BME280;5455;53.224;6.000;2022-11-06T09:20:30;100896.88;;;9.84;100.00
10806;BME280;5455;53.224;6.000;2022-11-06T09:23:02;100901.66;;;9.87;100.00
10806;BME280;5455;53.224;6.000;2022-11-06T09:25:29;100893.50;;;9.91;100.00
10806;BME280;5455;53.224;6.000;2022-11-06T09:27:57;100892.81;;;9.94;100.00
10806;BME280;5455;53.224;6.000;2022-11-06T09:30:28;100893.13;;;9.92;100.00
10806;BME280;5455;53.224;6.000;2022-11-06T09:32:57;100891.53;;;9.91;100.00
10806;BME280;5455;53.224;6.000;2022-11-06T09:35:26;100898.22;;;9.90;100.00
10806;BME280;5455;53.224;6.000;2022-11-06T09:37:59;100890.66;;;9.87;100.00
10806;BME280;5455;53.224;6.000;2022-11-06T09:40:39;100885.84;;;9.84;100.00
10806;BME280;5455;53.224;6.000;2022-11-06T09:46:39;100877.94;;;9.83;100.00
10806;BME280;5455;53.224;6.000;2022-11-06T09:51:54;100872.41;;;9.83;100.00
10806;BME280;5455;53.224;6.000;2022-11-06T09:55:02;100866.91;;;9.83;100.00
10806;BME280;5455;53.224;6.000;2022-11-06T10:00:02;100868.16;;;9.85;100.00
10806;BME280;5455;53.224;6.000;2022-11-06T10:02:42;100858.03;;;9.89;100.00
10806;BME280;5455;53.224;6.000;2022-11-06T10:05:23;100857.34;;;9.92;100.00
10806;BME280;5455;53.224;6.000;2022-11-06T10:07:56;100863.28;;;9.94;100.00
10806;BME280;5455;53.224;6.000;2022-11-06T10:10:39;100856.28;;;9.97;100.00
10806;BME280;5455;53.224;6.000;2022-11-06T10:21:23;100843.91;;;10.07;100.00
10806;BME280;5455;53.224;6.000;2022-11-06T10:23:57;100829.78;;;10.08;100.00
10806;BME280;5455;53.224;6.000;2022-11-06T10:26:41;100836.13;;;10.09;100.00
10806;BME280;5455;53.224;6.000;2022-11-06T10:37:54;100832.22;;;10.25;100.00
10806;BME280;5455;53.224;6.000;2022-11-06T10:40:27;100827.16;;;10.27;100.00
10806;BME280;5455;53.224;6.000;2022-11-06T10:43:28;100822.88;;;10.30;100.00
10806;BME280;5455;53.224;6.000;2022-11-06T10:46:11;100820.47;;;10.28;100.00
10806;BME280;5455;53.224;6.000;2022-11-06T10:49:10;100822.41;;;10.28;100.00
10806;BME280;5455;53.224;6.000;2022-11-06T10:51:42;100818.53;;;10.29;100.00
10806;BME280;5455;53.224;6.000;2022-11-06T10:59:49;100813.19;;;10.36;100.00
10806;BME280;5455;53.224;6.000;2022-11-06T11:04:46;100808.38;;;10.33;100.00
10806;BME280;5455;53.224;6.000;2022-11-06T11:07:14;100808.38;;;10.33;100.00
10806;BME280;5455;53.224;6.000;2022-11-06T11:09:47;100800.56;;;10.35;100.00
10806;BME280;5455;53.224;6.000;2022-11-06T11:12:21;100792.28;;;10.35;100.00
10806;BME280;5455;53.224;6.000;2022-11-06T11:17:31;100800.53;;;10.50;100.00
10806;BME280;5455;53.224;6.000;2022-11-06T11:19:57;100795.53;;;10.56;100.00
10806;BME280;5455;53.224;6.000;2022-11-06T11:22:24;100791.31;;;10.62;100.00
10806;BME280;5455;53.224;6.000;2022-11-06T11:27:34;100781.63;;;10.68;100.00
10806;BME280;5455;53.224;6.000;2022-11-06T11:30:19;100774.94;;;10.69;100.00
10806;BME280;5455;53.224;6.000;2022-11-06T11:32:46;100768.25;;;10.70;100.00
10806;BME280;5455;53.224;6.000;2022-11-06T11:35:18;100766.38;;;10.74;100.00
10806;BME280;5455;53.224;6.000;2022-11-06T11:37:45;100759.72;;;10.75;100.00
10806;BME280;5455;53.224;6.000;2022-11-06T11:40:34;100748.38;;;10.80;100.00
10806;BME280;5455;53.224;6.000;2022-11-06T11:43:25;100736.97;;;10.82;100.00
10806;BME280;5455;53.224;6.000;2022-11-06T11:51:37;100726.59;;;10.94;100.00
10806;BME280;5455;53.224;6.000;2022-11-06T11:57:15;100706.78;;;11.08;100.00
10806;BME280;5455;53.224;6.000;2022-11-06T12:02:41;100695.13;;;11.18;100.00
10806;BME280;5455;53.224;6.000;2022-11-06T12:05:14;100686.25;;;11.28;100.00
10806;BME280;5455;53.224;6.000;2022-11-06T12:07:46;100696.91;;;11.30;100.00
10806;BME280;5455;53.224;6.000;2022-11-06T12:10:37;100684.63;;;11.27;100.00
10806;BME280;5455;53.224;6.000;2022-11-06T12:13:16;100681.81;;;11.24;100.00
10806;BME280;5455;53.224;6.000;2022-11-06T12:15:57;100682.66;;;11.28;100.00
10806;BME280;5455;53.224;6.000;2022-11-06T12:18:28;100678.81;;;11.32;100.00
10806;BME280;5455;53.224;6.000;2022-11-06T12:21:02;100674.53;;;11.35;100.00
10806;BME280;5455;53.224;6.000;2022-11-06T12:23:39;100656.84;;;11.39;100.00
10806;BME280;5455;53.224;6.000;2022-11-06T12:26:46;100666.06;;;11.47;100.00
10806;BME280;5455;53.224;6.000;2022-11-06T12:31:56;100656.28;;;11.53;100.00
10806;BME280;5455;53.224;6.000;2022-11-06T12:34:42;100640.63;;;11.60;100.00
10806;BME280;5455;53.224;6.000;2022-11-06T12:40:36;100640.28;;;11.66;100.00
10806;BME280;5455;53.224;6.000;2022-11-06T12:54:11;100631.44;;;11.53;100.00
10806;BME280;5455;53.224;6.000;2022-11-06T12:57:03;100635.69;;;11.47;100.00
10806;BME280;5455;53.224;6.000;2022-11-06T12:59:51;100637.91;;;11.38;100.00
10806;BME280;5455;53.224;6.000;2022-11-06T13:05:29;100629.16;;;11.32;100.00
10806;BME280;5455;53.224;6.000;2022-11-06T13:08:17;100619.63;;;11.30;100.00
10806;BME280;5455;53.224;6.000;2022-11-06T13:16:27;100614.34;;;11.21;100.00
10806;BME280;5455;53.224;6.000;2022-11-06T13:19:11;100606.88;;;11.22;100.00
10806;BME280;5455;53.224;6.000;2022-11-06T13:27:22;100608.22;;;11.08;100.00
10806;BME280;5455;53.224;6.000;2022-11-06T13:29:55;100601.41;;;11.02;100.00
10806;BME280;5455;53.224;6.000;2022-11-06T13:32:25;100590.75;;;11.01;100.00
10806;BME280;5455;53.224;6.000;2022-11-06T13:34:54;100588.00;;;11.01;100.00
10806;BME280;5455;53.224;6.000;2022-11-06T13:37:37;100578.91;;;11.00;100.00
10806;BME280;5455;53.224;6.000;2022-11-06T13:40:17;100576.91;;;10.97;100.00
10806;BME280;5455;53.224;6.000;2022-11-06T13:42:59;100579.16;;;10.92;100.00
10806;BME280;5455;53.224;6.000;2022-11-06T13:56:49;100567.22;;;10.84;100.00
10806;BME280;5455;53.224;6.000;2022-11-06T14:04:51;100567.97;;;10.81;100.00
10806;BME280;5455;53.224;6.000;2022-11-06T14:07:26;100576.25;;;10.81;100.00
10806;BME280;5455;53.224;6.000;2022-11-06T14:09:54;100572.28;;;10.82;100.00
10806;BME280;5455;53.224;6.000;2022-11-06T14:12:21;100582.91;;;10.80;100.00
10806;BME280;5455;53.224;6.000;2022-11-06T14:14:51;100575.44;;;10.81;100.00
10806;BME280;5455;53.224;6.000;2022-11-06T14:17:22;100576.53;;;10.76;100.00
10806;BME280;5455;53.224;6.000;2022-11-06T14:22:30;100572.06;;;10.68;100.00
10806;BME280;5455;53.224;6.000;2022-11-06T14:24:58;100571.25;;;10.68;100.00
10806;BME280;5455;53.224;6.000;2022-11-06T14:40:37;100565.84;;;10.52;100.00
10806;BME280;5455;53.224;6.000;2022-11-06T14:43:17;100562.22;;;10.48;100.00
10806;BME280;5455;53.224;6.000;2022-11-06T14:45:55;100559.03;;;10.46;100.00
10806;BME280;5455;53.224;6.000;2022-11-06T14:48:37;100550.75;;;10.46;100.00
10806;BME280;5455;53.224;6.000;2022-11-06T14:51:07;100551.50;;;10.43;100.00
10806;BME280;5455;53.224;6.000;2022-11-06T14:53:44;100553.41;;;10.39;100.00
10806;BME280;5455;53.224;6.000;2022-11-06T14:56:20;100544.69;;;10.37;100.00
10806;BME280;5455;53.224;6.000;2022-11-06T14:58:53;100538.75;;;10.35;100.00
10806;BME280;5455;53.224;6.000;2022-11-06T15:01:32;100535.56;;;10.33;100.00
10806;BME280;5455;53.224;6.000;2022-11-06T15:04:18;100535.91;;;10.31;100.00
10806;BME280;5455;53.224;6.000;2022-11-06T15:06:47;100531.13;;;10.28;100.00
10806;BME280;5455;53.224;6.000;2022-11-06T15:11:51;100533.03;;;10.24;100.00
10806;BME280;5455;53.224;6.000;2022-11-06T15:16:50;100527.53;;;10.24;100.00
10806;BME280;5455;53.224;6.000;2022-11-06T15:19:28;100535.34;;;10.22;100.00
10806;BME280;5455;53.224;6.000;2022-11-06T15:22:19;100525.44;;;10.18;100.00
10806;BME280;5455;53.224;6.000;2022-11-06T15:24:56;100522.00;;;10.05;100.00
10806;BME280;5455;53.224;6.000;2022-11-06T15:27:30;100522.66;;;9.98;100.00
10806;BME280;5455;53.224;6.000;2022-11-06T15:30:02;100518.59;;;9.92;100.00
10806;BME280;5455;53.224;6.000;2022-11-06T15:32:36;100525.53;;;9.86;100.00
10806;BME280;5455;53.224;6.000;2022-11-06T15:35:07;100507.78;;;9.84;100.00
10806;BME280;5455;53.224;6.000;2022-11-06T15:37:40;100521.06;;;9.78;100.00
10806;BME280;5455;53.224;6.000;2022-11-06T15:42:48;100514.25;;;9.72;100.00
10806;BME280;5455;53.224;6.000;2022-11-06T15:50:31;100496.63;;;9.58;100.00
10806;BME280;5455;53.224;6.000;2022-11-06T15:53:20;100492.28;;;9.57;100.00
10806;BME280;5455;53.224;6.000;2022-11-06T15:56:01;100487.06;;;9.52;100.00